sensor_id;sensor_type;location;lat;lon;timestamp;P1;durP1;ratioP1;P2;durP2;ratioP2
77026;SDS011;65956;52.986;17.490;2023-07-29T00:00:57;8.30;;;4.60;;
77026;SDS011;65956;52.986;17.490;2023-07-29T00:03:26;5.40;;;3.90;;
77026;SDS011;65956;52.986;17.490;2023-07-29T00:05:52;6.70;;;4.50;;
77026;SDS011;65956;52.986;17.490;2023-07-29T00:08:18;6.20;;;4.40;;
77026;SDS011;65956;52.986;17.490;2023-07-29T00:10:44;6.60;;;4.70;;
77026;SDS011;65956;52.986;17.490;2023-07-29T00:13:10;7.10;;;4.30;;
77026;SDS011;65956;52.986;17.490;2023-07-29T00:15:36;6.10;;;4.20;;
77026;SDS011;65956;52.986;17.490;2023-07-29T00:18:02;5.40;;;4.10;;
77026;SDS011;65956;52.986;17.490;2023-07-29T00:20:28;5.60;;;4.00;;
77026;SDS011;65956;52.986;17.490;2023-07-29T00:22:54;6.00;;;4.30;;
77026;SDS011;65956;52.986;17.490;2023-07-29T00:25:21;6.40;;;3.60;;
77026;SDS011;65956;52.986;17.490;2023-07-29T00:27:47;6.80;;;3.90;;
77026;SDS011;65956;52.986;17.490;2023-07-29T00:30:13;6.90;;;4.00;;
77026;SDS011;65956;52.986;17.490;2023-07-29T00:32:39;5.20;;;3.30;;
77026;SDS011;65956;52.986;17.490;2023-07-29T00:35:05;6.30;;;3.90;;
77026;SDS011;65956;52.986;17.490;2023-07-29T00:37:32;5.20;;;3.90;;
77026;SDS011;65956;52.986;17.490;2023-07-29T00:39:58;5.50;;;3.70;;
77026;SDS011;65956;52.986;17.490;2023-07-29T00:42:24;6.00;;;4.00;;
77026;SDS011;65956;52.986;17.490;2023-07-29T00:44:50;7.60;;;4.20;;
77026;SDS011;65956;52.986;17.490;2023-07-29T00:47:16;6.20;;;4.00;;
77026;SDS011;65956;52.986;17.490;2023-07-29T00:49:43;5.70;;;4.00;;
77026;SDS011;65956;52.986;17.490;2023-07-29T00:52:10;5.90;;;4.10;;
77026;SDS011;65956;52.986;17.490;2023-07-29T00:54:41;9.90;;;5.70;;
77026;SDS011;65956;52.986;17.490;2023-07-29T00:57:08;8.90;;;5.00;;
77026;SDS011;65956;52.986;17.490;2023-07-29T00:59:35;11.10;;;4.70;;
77026;SDS011;65956;52.986;17.490;2023-07-29T01:02:02;7.20;;;4.60;;
77026;SDS011;65956;52.986;17.490;2023-07-29T01:04:30;7.30;;;4.80;;
77026;SDS011;65956;52.986;17.490;2023-07-29T01:07:14;10.90;;;7.90;;
77026;SDS011;65956;52.986;17.490;2023-07-29T01:10:03;8.20;;;5.80;;
77026;SDS011;65956;52.986;17.490;2023-07-29T01:12:49;8.80;;;5.80;;
77026;SDS011;65956;52.986;17.490;2023-07-29T01:18:06;9.20;;;5.30;;
77026;SDS011;65956;52.986;17.490;2023-07-29T01:20:37;7.70;;;5.10;;
77026;SDS011;65956;52.986;17.490;2023-07-29T01:23:06;7.20;;;4.60;;
77026;SDS011;65956;52.986;17.490;2023-07-29T01:25:31;7.80;;;4.10;;
77026;SDS011;65956;52.986;17.490;2023-07-29T01:27:58;7.10;;;4.00;;
77026;SDS011;65956;52.986;17.490;2023-07-29T01:30:26;9.80;;;4.80;;
77026;SDS011;65956;52.986;17.490;2023-07-29T01:32:59;8.30;;;4.50;;
77026;SDS011;65956;52.986;17.490;2023-07-29T01:35:54;7.80;;;4.60;;
77026;SDS011;65956;52.986;17.490;2023-07-29T01:38:24;6.30;;;4.00;;
77026;SDS011;65956;52.986;17.490;2023-07-29T01:41:03;6.10;;;4.10;;
77026;SDS011;65956;52.986;17.490;2023-07-29T01:43:32;7.20;;;4.20;;
77026;SDS011;65956;52.986;17.490;2023-07-29T01:45:59;6.60;;;4.70;;
77026;SDS011;65956;52.986;17.490;2023-07-29T01:48:26;9.40;;;5.40;;
77026;SDS011;65956;52.986;17.490;2023-07-29T01:50:54;6.20;;;4.30;;
77026;SDS011;65956;52.986;17.490;2023-07-29T01:53:20;6.90;;;4.80;;
77026;SDS011;65956;52.986;17.490;2023-07-29T01:55:46;7.70;;;4.80;;
77026;SDS011;65956;52.986;17.490;2023-07-29T01:58:12;7.00;;;4.80;;
77026;SDS011;65956;52.986;17.490;2023-07-29T02:00:40;7.90;;;5.10;;
77026;SDS011;65956;52.986;17.490;2023-07-29T02:03:06;7.30;;;5.20;;
77026;SDS011;65956;52.986;17.490;2023-07-29T02:05:32;8.30;;;5.60;;
77026;SDS011;65956;52.986;17.490;2023-07-29T02:07:58;8.40;;;5.90;;
77026;SDS011;65956;52.986;17.490;2023-07-29T02:10:24;7.00;;;5.10;;
77026;SDS011;65956;52.986;17.490;2023-07-29T02:12:50;5.70;;;4.00;;
77026;SDS011;65956;52.986;17.490;2023-07-29T02:15:16;6.90;;;4.00;;
77026;SDS011;65956;52.986;17.490;2023-07-29T02:17:42;5.40;;;3.90;;
77026;SDS011;65956;52.986;17.490;2023-07-29T02:20:08;7.00;;;4.60;;
77026;SDS011;65956;52.986;17.490;2023-07-29T02:22:36;9.10;;;5.30;;
77026;SDS011;65956;52.986;17.490;2023-07-29T02:25:02;8.40;;;5.80;;
77026;SDS011;65956;52.986;17.490;2023-07-29T02:27:29;7.00;;;4.70;;
77026;SDS011;65956;52.986;17.490;2023-07-29T02:29:54;7.50;;;5.50;;
77026;SDS011;65956;52.986;17.490;2023-07-29T02:32:21;7.30;;;5.00;;
77026;SDS011;65956;52.986;17.490;2023-07-29T02:34:48;8.10;;;5.10;;
77026;SDS011;65956;52.986;17.490;2023-07-29T02:37:15;8.90;;;4.90;;
77026;SDS011;65956;52.986;17.490;2023-07-29T02:39:41;8.40;;;4.90;;
77026;SDS011;65956;52.986;17.490;2023-07-29T02:42:07;7.20;;;4.70;;
77026;SDS011;65956;52.986;17.490;2023-07-29T02:44:33;7.10;;;4.60;;
77026;SDS011;65956;52.986;17.490;2023-07-29T02:46:59;6.70;;;4.70;;
77026;SDS011;65956;52.986;17.490;2023-07-29T02:49:25;7.80;;;4.90;;
77026;SDS011;65956;52.986;17.490;2023-07-29T02:51:51;8.40;;;5.70;;
77026;SDS011;65956;52.986;17.490;2023-07-29T02:54:17;7.90;;;5.60;;
77026;SDS011;65956;52.986;17.490;2023-07-29T02:56:43;7.70;;;5.30;;
77026;SDS011;65956;52.986;17.490;2023-07-29T02:59:08;8.30;;;5.20;;
77026;SDS011;65956;52.986;17.490;2023-07-29T03:01:34;8.60;;;5.10;;
77026;SDS011;65956;52.986;17.490;2023-07-29T03:04:00;7.40;;;5.20;;
77026;SDS011;65956;52.986;17.490;2023-07-29T03:06:27;8.00;;;5.80;;
77026;SDS011;65956;52.986;17.490;2023-07-29T03:08:53;8.60;;;5.70;;
77026;SDS011;65956;52.986;17.490;2023-07-29T03:11:19;8.50;;;5.80;;
77026;SDS011;65956;52.986;17.490;2023-07-29T03:13:45;8.30;;;6.20;;
77026;SDS011;65956;52.986;17.490;2023-07-29T03:16:15;8.90;;;6.20;;
77026;SDS011;65956;52.986;17.490;2023-07-29T03:18:46;9.40;;;5.50;;
77026;SDS011;65956;52.986;17.490;2023-07-29T03:21:14;8.80;;;5.50;;
77026;SDS011;65956;52.986;17.490;2023-07-29T03:23:40;8.10;;;5.80;;
77026;SDS011;65956;52.986;17.490;2023-07-29T03:26:07;7.20;;;5.10;;
77026;SDS011;65956;52.986;17.490;2023-07-29T03:28:37;8.40;;;5.70;;
77026;SDS011;65956;52.986;17.490;2023-07-29T03:31:05;7.00;;;5.00;;
77026;SDS011;65956;52.986;17.490;2023-07-29T03:33:32;9.20;;;5.20;;
77026;SDS011;65956;52.986;17.490;2023-07-29T03:35:58;7.00;;;5.30;;
77026;SDS011;65956;52.986;17.490;2023-07-29T03:38:24;8.00;;;5.00;;
77026;SDS011;65956;52.986;17.490;2023-07-29T03:40:50;6.80;;;5.20;;
77026;SDS011;65956;52.986;17.490;2023-07-29T03:43:16;8.30;;;5.90;;
77026;SDS011;65956;52.986;17.490;2023-07-29T03:45:43;7.40;;;5.60;;
77026;SDS011;65956;52.986;17.490;2023-07-29T03:48:09;8.30;;;5.60;;
77026;SDS011;65956;52.986;17.490;2023-07-29T03:50:35;10.70;;;5.80;;
77026;SDS011;65956;52.986;17.490;2023-07-29T03:53:02;12.80;;;7.50;;
77026;SDS011;65956;52.986;17.490;2023-07-29T03:55:29;12.90;;;7.80;;
77026;SDS011;65956;52.986;17.490;2023-07-29T03:57:59;11.40;;;7.80;;
77026;SDS011;65956;52.986;17.490;2023-07-29T04:00:26;11.00;;;6.30;;
77026;SDS011;65956;52.986;17.490;2023-07-29T04:02:53;11.00;;;6.10;;
77026;SDS011;65956;52.986;17.490;2023-07-29T04:05:19;8.80;;;5.00;;
77026;SDS011;65956;52.986;17.490;2023-07-29T04:07:45;9.30;;;4.90;;
77026;SDS011;65956;52.986;17.490;2023-07-29T04:10:11;6.70;;;4.40;;
77026;SDS011;65956;52.986;17.490;2023-07-29T04:12:38;6.90;;;3.70;;
77026;SDS011;65956;52.986;17.490;2023-07-29T04:15:04;7.30;;;3.20;;
77026;SDS011;65956;52.986;17.490;2023-07-29T04:17:30;5.70;;;2.90;;
77026;SDS011;65956;52.986;17.490;2023-07-29T04:19:56;5.80;;;3.60;;
77026;SDS011;65956;52.986;17.490;2023-07-29T04:22:25;6.60;;;4.50;;
77026;SDS011;65956;52.986;17.490;2023-07-29T04:24:51;9.20;;;5.30;;
77026;SDS011;65956;52.986;17.490;2023-07-29T04:27:17;8.30;;;4.60;;
77026;SDS011;65956;52.986;17.490;2023-07-29T04:29:43;9.20;;;4.70;;
77026;SDS011;65956;52.986;17.490;2023-07-29T04:32:09;9.10;;;5.40;;
77026;SDS011;65956;52.986;17.490;2023-07-29T04:34:35;7.10;;;4.70;;
77026;SDS011;65956;52.986;17.490;2023-07-29T04:37:01;8.50;;;5.60;;
77026;SDS011;65956;52.986;17.490;2023-07-29T04:39:27;8.00;;;7.10;;
77026;SDS011;65956;52.986;17.490;2023-07-29T04:41:53;7.60;;;6.00;;
77026;SDS011;65956;52.986;17.490;2023-07-29T04:44:20;11.10;;;6.30;;
77026;SDS011;65956;52.986;17.490;2023-07-29T04:46:46;8.30;;;4.60;;
77026;SDS011;65956;52.986;17.490;2023-07-29T04:49:12;7.50;;;5.80;;
77026;SDS011;65956;52.986;17.490;2023-07-29T04:51:38;8.20;;;5.10;;
77026;SDS011;65956;52.986;17.490;2023-07-29T04:54:04;7.50;;;5.00;;
77026;SDS011;65956;52.986;17.490;2023-07-29T04:56:30;6.90;;;5.20;;
77026;SDS011;65956;52.986;17.490;2023-07-29T04:58:56;6.30;;;4.00;;
77026;SDS011;65956;52.986;17.490;2023-07-29T05:01:22;7.00;;;4.90;;
77026;SDS011;65956;52.986;17.490;2023-07-29T05:03:48;6.20;;;4.10;;
77026;SDS011;65956;52.986;17.490;2023-07-29T05:06:14;7.10;;;5.00;;
77026;SDS011;65956;52.986;17.490;2023-07-29T05:08:40;7.90;;;4.80;;
77026;SDS011;65956;52.986;17.490;2023-07-29T05:11:06;7.60;;;4.80;;
77026;SDS011;65956;52.986;17.490;2023-07-29T05:13:32;8.50;;;4.80;;
77026;SDS011;65956;52.986;17.490;2023-07-29T05:15:58;6.90;;;4.70;;
77026;SDS011;65956;52.986;17.490;2023-07-29T05:18:24;7.10;;;4.90;;
77026;SDS011;65956;52.986;17.490;2023-07-29T05:20:50;6.40;;;5.10;;
77026;SDS011;65956;52.986;17.490;2023-07-29T05:23:16;7.40;;;4.90;;
77026;SDS011;65956;52.986;17.490;2023-07-29T05:25:42;6.10;;;4.30;;
77026;SDS011;65956;52.986;17.490;2023-07-29T05:28:08;7.70;;;4.90;;
77026;SDS011;65956;52.986;17.490;2023-07-29T05:30:34;7.00;;;4.20;;
77026;SDS011;65956;52.986;17.490;2023-07-29T05:33:03;5.40;;;4.10;;
77026;SDS011;65956;52.986;17.490;2023-07-29T05:35:30;5.70;;;3.70;;
77026;SDS011;65956;52.986;17.490;2023-07-29T05:37:56;5.60;;;3.60;;
77026;SDS011;65956;52.986;17.490;2023-07-29T05:40:22;4.40;;;3.10;;
77026;SDS011;65956;52.986;17.490;2023-07-29T05:42:48;4.50;;;3.10;;
77026;SDS011;65956;52.986;17.490;2023-07-29T05:45:14;6.80;;;3.40;;
77026;SDS011;65956;52.986;17.490;2023-07-29T05:47:40;5.70;;;3.50;;
77026;SDS011;65956;52.986;17.490;2023-07-29T05:50:07;4.70;;;3.50;;
77026;SDS011;65956;52.986;17.490;2023-07-29T05:52:34;4.70;;;3.10;;
77026;SDS011;65956;52.986;17.490;2023-07-29T05:55:00;5.20;;;3.00;;
77026;SDS011;65956;52.986;17.490;2023-07-29T05:57:26;7.40;;;3.50;;
77026;SDS011;65956;52.986;17.490;2023-07-29T05:59:53;6.70;;;3.90;;
77026;SDS011;65956;52.986;17.490;2023-07-29T06:02:19;5.50;;;3.30;;
77026;SDS011;65956;52.986;17.490;2023-07-29T06:04:45;6.20;;;3.50;;
77026;SDS011;65956;52.986;17.490;2023-07-29T06:07:11;6.60;;;3.40;;
77026;SDS011;65956;52.986;17.490;2023-07-29T06:09:37;4.00;;;2.60;;
77026;SDS011;65956;52.986;17.490;2023-07-29T06:12:03;4.90;;;2.70;;
77026;SDS011;65956;52.986;17.490;2023-07-29T06:14:29;3.70;;;2.50;;
77026;SDS011;65956;52.986;17.490;2023-07-29T06:16:55;6.00;;;3.10;;
77026;SDS011;65956;52.986;17.490;2023-07-29T06:19:21;4.50;;;2.60;;
77026;SDS011;65956;52.986;17.490;2023-07-29T06:21:48;4.20;;;2.50;;
77026;SDS011;65956;52.986;17.490;2023-07-29T06:24:14;3.80;;;2.50;;
77026;SDS011;65956;52.986;17.490;2023-07-29T06:26:41;4.80;;;2.60;;
77026;SDS011;65956;52.986;17.490;2023-07-29T06:29:07;6.10;;;2.40;;
77026;SDS011;65956;52.986;17.490;2023-07-29T06:31:33;4.50;;;2.30;;
77026;SDS011;65956;52.986;17.490;2023-07-29T06:33:59;3.80;;;2.40;;
77026;SDS011;65956;52.986;17.490;2023-07-29T06:36:24;3.40;;;2.10;;
77026;SDS011;65956;52.986;17.490;2023-07-29T06:38:50;3.20;;;1.90;;
77026;SDS011;65956;52.986;17.490;2023-07-29T06:41:16;6.00;;;2.80;;
77026;SDS011;65956;52.986;17.490;2023-07-29T06:43:42;3.30;;;2.00;;
77026;SDS011;65956;52.986;17.490;2023-07-29T06:46:08;3.40;;;2.10;;
77026;SDS011;65956;52.986;17.490;2023-07-29T06:48:34;4.60;;;2.70;;
77026;SDS011;65956;52.986;17.490;2023-07-29T06:51:00;4.40;;;2.60;;
77026;SDS011;65956;52.986;17.490;2023-07-29T06:53:27;3.40;;;1.90;;
77026;SDS011;65956;52.986;17.490;2023-07-29T06:55:53;4.40;;;2.20;;
77026;SDS011;65956;52.986;17.490;2023-07-29T06:58:19;4.40;;;2.30;;
77026;SDS011;65956;52.986;17.490;2023-07-29T07:00:46;3.30;;;2.00;;
77026;SDS011;65956;52.986;17.490;2023-07-29T07:03:12;3.80;;;2.60;;
77026;SDS011;65956;52.986;17.490;2023-07-29T07:05:38;3.90;;;2.00;;
77026;SDS011;65956;52.986;17.490;2023-07-29T07:08:04;4.10;;;1.60;;
77026;SDS011;65956;52.986;17.490;2023-07-29T07:10:30;4.60;;;2.30;;
77026;SDS011;65956;52.986;17.490;2023-07-29T07:12:56;3.30;;;1.90;;
77026;SDS011;65956;52.986;17.490;2023-07-29T07:15:22;3.90;;;2.20;;
77026;SDS011;65956;52.986;17.490;2023-07-29T07:17:48;3.40;;;1.90;;
77026;SDS011;65956;52.986;17.490;2023-07-29T07:20:14;3.40;;;1.60;;
77026;SDS011;65956;52.986;17.490;2023-07-29T07:22:40;3.10;;;1.40;;
77026;SDS011;65956;52.986;17.490;2023-07-29T07:25:06;3.90;;;2.00;;
77026;SDS011;65956;52.986;17.490;2023-07-29T07:27:32;4.20;;;1.60;;
77026;SDS011;65956;52.986;17.490;2023-07-29T07:29:59;3.20;;;1.80;;
77026;SDS011;65956;52.986;17.490;2023-07-29T07:32:25;3.10;;;1.70;;
77026;SDS011;65956;52.986;17.490;2023-07-29T07:34:51;3.60;;;1.80;;
77026;SDS011;65956;52.986;17.490;2023-07-29T07:37:17;4.50;;;1.90;;
77026;SDS011;65956;52.986;17.490;2023-07-29T07:39:43;3.20;;;1.80;;
77026;SDS011;65956;52.986;17.490;2023-07-29T07:42:09;3.50;;;1.60;;
77026;SDS011;65956;52.986;17.490;2023-07-29T07:44:35;2.80;;;1.50;;
77026;SDS011;65956;52.986;17.490;2023-07-29T07:47:01;2.70;;;1.40;;
77026;SDS011;65956;52.986;17.490;2023-07-29T07:49:27;3.00;;;1.60;;
77026;SDS011;65956;52.986;17.490;2023-07-29T07:51:53;3.70;;;1.80;;
77026;SDS011;65956;52.986;17.490;2023-07-29T07:54:19;3.40;;;2.00;;
77026;SDS011;65956;52.986;17.490;2023-07-29T07:56:44;3.80;;;2.10;;
77026;SDS011;65956;52.986;17.490;2023-07-29T07:59:11;3.50;;;1.60;;
77026;SDS011;65956;52.986;17.490;2023-07-29T08:01:37;4.70;;;1.70;;
77026;SDS011;65956;52.986;17.490;2023-07-29T08:04:04;4.00;;;1.70;;
77026;SDS011;65956;52.986;17.490;2023-07-29T08:06:31;3.40;;;1.90;;
77026;SDS011;65956;52.986;17.490;2023-07-29T08:08:58;5.10;;;2.00;;
77026;SDS011;65956;52.986;17.490;2023-07-29T08:11:24;2.90;;;1.60;;
77026;SDS011;65956;52.986;17.490;2023-07-29T08:13:51;3.40;;;1.70;;
77026;SDS011;65956;52.986;17.490;2023-07-29T08:16:17;3.60;;;1.50;;
77026;SDS011;65956;52.986;17.490;2023-07-29T08:18:43;4.00;;;1.50;;
77026;SDS011;65956;52.986;17.490;2023-07-29T08:21:09;2.90;;;1.20;;
77026;SDS011;65956;52.986;17.490;2023-07-29T08:23:35;3.10;;;1.20;;
77026;SDS011;65956;52.986;17.490;2023-07-29T08:26:04;3.50;;;1.60;;
77026;SDS011;65956;52.986;17.490;2023-07-29T08:28:35;3.30;;;1.40;;
77026;SDS011;65956;52.986;17.490;2023-07-29T08:31:03;3.50;;;1.80;;
77026;SDS011;65956;52.986;17.490;2023-07-29T08:33:30;3.20;;;1.60;;
77026;SDS011;65956;52.986;17.490;2023-07-29T08:35:57;4.40;;;1.60;;
77026;SDS011;65956;52.986;17.490;2023-07-29T08:38:23;3.30;;;1.50;;
77026;SDS011;65956;52.986;17.490;2023-07-29T08:43:39;3.30;;;1.60;;
77026;SDS011;65956;52.986;17.490;2023-07-29T08:46:15;3.70;;;1.80;;
77026;SDS011;65956;52.986;17.490;2023-07-29T08:48:43;4.50;;;1.60;;
77026;SDS011;65956;52.986;17.490;2023-07-29T08:51:09;5.30;;;1.60;;
77026;SDS011;65956;52.986;17.490;2023-07-29T08:53:36;4.70;;;1.50;;
77026;SDS011;65956;52.986;17.490;2023-07-29T08:56:04;2.50;;;1.20;;
77026;SDS011;65956;52.986;17.490;2023-07-29T08:58:31;3.20;;;1.40;;
77026;SDS011;65956;52.986;17.490;2023-07-29T09:00:57;3.30;;;1.50;;
77026;SDS011;65956;52.986;17.490;2023-07-29T09:03:24;3.00;;;1.50;;
77026;SDS011;65956;52.986;17.490;2023-07-29T09:05:52;3.50;;;1.40;;
77026;SDS011;65956;52.986;17.490;2023-07-29T09:08:18;3.10;;;1.30;;
77026;SDS011;65956;52.986;17.490;2023-07-29T09:10:45;2.90;;;1.40;;
77026;SDS011;65956;52.986;17.490;2023-07-29T09:13:11;3.80;;;1.60;;
77026;SDS011;65956;52.986;17.490;2023-07-29T09:15:37;3.50;;;1.40;;
77026;SDS011;65956;52.986;17.490;2023-07-29T09:18:10;3.20;;;1.40;;
77026;SDS011;65956;52.986;17.490;2023-07-29T09:20:38;4.90;;;1.50;;
77026;SDS011;65956;52.986;17.490;2023-07-29T09:23:06;2.70;;;1.50;;
77026;SDS011;65956;52.986;17.490;2023-07-29T09:25:34;3.00;;;1.30;;
77026;SDS011;65956;52.986;17.490;2023-07-29T09:28:01;3.00;;;1.20;;
77026;SDS011;65956;52.986;17.490;2023-07-29T09:30:33;2.80;;;1.20;;
77026;SDS011;65956;52.986;17.490;2023-07-29T09:32:59;2.50;;;1.30;;
77026;SDS011;65956;52.986;17.490;2023-07-29T09:35:27;2.40;;;1.10;;
77026;SDS011;65956;52.986;17.490;2023-07-29T09:37:54;3.50;;;1.30;;
77026;SDS011;65956;52.986;17.490;2023-07-29T09:40:20;3.00;;;1.40;;
77026;SDS011;65956;52.986;17.490;2023-07-29T09:42:52;3.20;;;1.50;;
77026;SDS011;65956;52.986;17.490;2023-07-29T09:45:24;3.80;;;1.60;;
77026;SDS011;65956;52.986;17.490;2023-07-29T09:47:52;2.50;;;1.20;;
77026;SDS011;65956;52.986;17.490;2023-07-29T09:50:20;2.70;;;1.50;;
77026;SDS011;65956;52.986;17.490;2023-07-29T09:52:49;2.50;;;1.30;;
77026;SDS011;65956;52.986;17.490;2023-07-29T09:55:23;2.70;;;1.30;;
77026;SDS011;65956;52.986;17.490;2023-07-29T09:57:58;2.40;;;1.20;;
77026;SDS011;65956;52.986;17.490;2023-07-29T10:00:29;3.30;;;1.20;;
77026;SDS011;65956;52.986;17.490;2023-07-29T10:02:57;2.40;;;1.20;;
77026;SDS011;65956;52.986;17.490;2023-07-29T10:05:25;3.00;;;1.30;;
77026;SDS011;65956;52.986;17.490;2023-07-29T10:07:53;4.00;;;1.30;;
77026;SDS011;65956;52.986;17.490;2023-07-29T10:10:20;2.70;;;1.30;;
77026;SDS011;65956;52.986;17.490;2023-07-29T10:12:46;2.60;;;1.40;;
77026;SDS011;65956;52.986;17.490;2023-07-29T10:15:13;5.10;;;1.30;;
77026;SDS011;65956;52.986;17.490;2023-07-29T10:17:42;2.70;;;1.20;;
77026;SDS011;65956;52.986;17.490;2023-07-29T10:20:09;3.40;;;1.20;;
77026;SDS011;65956;52.986;17.490;2023-07-29T10:22:37;2.60;;;1.30;;
77026;SDS011;65956;52.986;17.490;2023-07-29T10:27:47;3.50;;;1.40;;
77026;SDS011;65956;52.986;17.490;2023-07-29T10:30:15;2.80;;;1.20;;
77026;SDS011;65956;52.986;17.490;2023-07-29T10:32:42;2.50;;;1.30;;
77026;SDS011;65956;52.986;17.490;2023-07-29T10:35:11;2.40;;;1.30;;
77026;SDS011;65956;52.986;17.490;2023-07-29T10:37:38;2.80;;;1.70;;
77026;SDS011;65956;52.986;17.490;2023-07-29T10:40:07;2.80;;;1.60;;
77026;SDS011;65956;52.986;17.490;2023-07-29T10:42:36;2.90;;;1.60;;
77026;SDS011;65956;52.986;17.490;2023-07-29T10:45:17;2.90;;;1.50;;
77026;SDS011;65956;52.986;17.490;2023-07-29T10:47:45;2.60;;;1.40;;
77026;SDS011;65956;52.986;17.490;2023-07-29T10:50:17;3.50;;;1.40;;
77026;SDS011;65956;52.986;17.490;2023-07-29T10:52:48;3.10;;;1.40;;
77026;SDS011;65956;52.986;17.490;2023-07-29T10:55:24;2.60;;;1.40;;
77026;SDS011;65956;52.986;17.490;2023-07-29T10:58:03;3.80;;;1.30;;
77026;SDS011;65956;52.986;17.490;2023-07-29T11:00:32;2.80;;;1.30;;
77026;SDS011;65956;52.986;17.490;2023-07-29T11:02:59;2.80;;;1.40;;
77026;SDS011;65956;52.986;17.490;2023-07-29T11:05:44;2.60;;;1.50;;
77026;SDS011;65956;52.986;17.490;2023-07-29T11:08:31;3.90;;;1.40;;
77026;SDS011;65956;52.986;17.490;2023-07-29T11:11:05;2.80;;;1.50;;
77026;SDS011;65956;52.986;17.490;2023-07-29T11:13:31;3.30;;;1.50;;
77026;SDS011;65956;52.986;17.490;2023-07-29T11:16:00;3.90;;;1.90;;
77026;SDS011;65956;52.986;17.490;2023-07-29T11:18:28;3.10;;;1.70;;
77026;SDS011;65956;52.986;17.490;2023-07-29T11:20:55;3.00;;;1.60;;
77026;SDS011;65956;52.986;17.490;2023-07-29T11:23:35;3.10;;;1.80;;
77026;SDS011;65956;52.986;17.490;2023-07-29T11:26:02;4.00;;;1.70;;
77026;SDS011;65956;52.986;17.490;2023-07-29T11:28:30;3.50;;;1.90;;
77026;SDS011;65956;52.986;17.490;2023-07-29T11:30:56;4.50;;;1.70;;
77026;SDS011;65956;52.986;17.490;2023-07-29T11:33:24;3.00;;;1.80;;
77026;SDS011;65956;52.986;17.490;2023-07-29T11:35:52;3.10;;;1.80;;
77026;SDS011;65956;52.986;17.490;2023-07-29T11:38:18;3.60;;;1.80;;
77026;SDS011;65956;52.986;17.490;2023-07-29T11:40:56;3.00;;;1.60;;
77026;SDS011;65956;52.986;17.490;2023-07-29T11:43:24;2.80;;;1.60;;
77026;SDS011;65956;52.986;17.490;2023-07-29T11:45:51;3.10;;;1.60;;
77026;SDS011;65956;52.986;17.490;2023-07-29T11:48:17;3.10;;;1.90;;
77026;SDS011;65956;52.986;17.490;2023-07-29T11:50:43;2.90;;;1.60;;
77026;SDS011;65956;52.986;17.490;2023-07-29T11:53:11;3.40;;;1.90;;
77026;SDS011;65956;52.986;17.490;2023-07-29T11:55:37;3.40;;;1.90;;
77026;SDS011;65956;52.986;17.490;2023-07-29T11:58:03;3.40;;;1.80;;
77026;SDS011;65956;52.986;17.490;2023-07-29T12:00:30;2.90;;;1.50;;
77026;SDS011;65956;52.986;17.490;2023-07-29T12:02:57;3.60;;;1.70;;
77026;SDS011;65956;52.986;17.490;2023-07-29T12:05:23;3.20;;;1.80;;
77026;SDS011;65956;52.986;17.490;2023-07-29T12:07:50;3.30;;;1.70;;
77026;SDS011;65956;52.986;17.490;2023-07-29T12:10:16;4.30;;;2.00;;
77026;SDS011;65956;52.986;17.490;2023-07-29T12:12:47;3.20;;;1.70;;
77026;SDS011;65956;52.986;17.490;2023-07-29T12:15:24;2.70;;;1.60;;
77026;SDS011;65956;52.986;17.490;2023-07-29T12:17:55;3.70;;;1.60;;
77026;SDS011;65956;52.986;17.490;2023-07-29T12:20:22;3.20;;;1.60;;
77026;SDS011;65956;52.986;17.490;2023-07-29T12:22:58;3.00;;;1.40;;
77026;SDS011;65956;52.986;17.490;2023-07-29T12:25:28;2.70;;;1.40;;
77026;SDS011;65956;52.986;17.490;2023-07-29T12:27:55;3.30;;;1.50;;
77026;SDS011;65956;52.986;17.490;2023-07-29T12:30:21;3.20;;;1.70;;
77026;SDS011;65956;52.986;17.490;2023-07-29T12:32:48;3.20;;;1.80;;
77026;SDS011;65956;52.986;17.490;2023-07-29T12:35:14;3.60;;;2.00;;
77026;SDS011;65956;52.986;17.490;2023-07-29T12:37:41;3.10;;;1.60;;
77026;SDS011;65956;52.986;17.490;2023-07-29T12:40:29;4.10;;;1.70;;
77026;SDS011;65956;52.986;17.490;2023-07-29T12:42:55;2.70;;;1.50;;
77026;SDS011;65956;52.986;17.490;2023-07-29T12:45:21;3.70;;;1.70;;
77026;SDS011;65956;52.986;17.490;2023-07-29T12:47:52;4.10;;;2.00;;
77026;SDS011;65956;52.986;17.490;2023-07-29T12:50:18;3.70;;;2.00;;
77026;SDS011;65956;52.986;17.490;2023-07-29T12:52:44;2.60;;;1.50;;
77026;SDS011;65956;52.986;17.490;2023-07-29T12:55:10;3.60;;;1.90;;
77026;SDS011;65956;52.986;17.490;2023-07-29T12:57:41;3.50;;;1.70;;
77026;SDS011;65956;52.986;17.490;2023-07-29T13:00:09;3.00;;;2.00;;
77026;SDS011;65956;52.986;17.490;2023-07-29T13:02:36;3.70;;;2.00;;
77026;SDS011;65956;52.986;17.490;2023-07-29T13:05:02;4.60;;;2.00;;
77026;SDS011;65956;52.986;17.490;2023-07-29T13:07:28;3.40;;;1.90;;
77026;SDS011;65956;52.986;17.490;2023-07-29T13:09:54;3.10;;;2.10;;
77026;SDS011;65956;52.986;17.490;2023-07-29T13:12:20;4.10;;;2.10;;
77026;SDS011;65956;52.986;17.490;2023-07-29T13:14:46;3.20;;;2.20;;
77026;SDS011;65956;52.986;17.490;2023-07-29T13:17:11;4.20;;;2.40;;
77026;SDS011;65956;52.986;17.490;2023-07-29T13:19:37;4.10;;;2.10;;
77026;SDS011;65956;52.986;17.490;2023-07-29T13:22:03;3.20;;;2.10;;
77026;SDS011;65956;52.986;17.490;2023-07-29T13:24:30;3.50;;;2.00;;
77026;SDS011;65956;52.986;17.490;2023-07-29T13:26:55;2.90;;;1.90;;
77026;SDS011;65956;52.986;17.490;2023-07-29T13:29:21;4.30;;;2.00;;
77026;SDS011;65956;52.986;17.490;2023-07-29T13:31:47;3.90;;;2.30;;
77026;SDS011;65956;52.986;17.490;2023-07-29T13:34:13;3.60;;;2.10;;
77026;SDS011;65956;52.986;17.490;2023-07-29T13:36:40;4.60;;;1.90;;
77026;SDS011;65956;52.986;17.490;2023-07-29T13:39:05;3.40;;;2.20;;
77026;SDS011;65956;52.986;17.490;2023-07-29T13:41:32;3.50;;;2.30;;
77026;SDS011;65956;52.986;17.490;2023-07-29T13:43:58;3.30;;;2.00;;
77026;SDS011;65956;52.986;17.490;2023-07-29T13:46:24;3.50;;;1.90;;
77026;SDS011;65956;52.986;17.490;2023-07-29T13:48:50;4.10;;;2.30;;
77026;SDS011;65956;52.986;17.490;2023-07-29T13:51:15;4.00;;;2.40;;
77026;SDS011;65956;52.986;17.490;2023-07-29T13:53:41;3.70;;;2.30;;
77026;SDS011;65956;52.986;17.490;2023-07-29T13:56:07;3.60;;;2.20;;
77026;SDS011;65956;52.986;17.490;2023-07-29T13:58:33;3.80;;;2.30;;
77026;SDS011;65956;52.986;17.490;2023-07-29T14:00:59;3.40;;;2.20;;
77026;SDS011;65956;52.986;17.490;2023-07-29T14:03:25;6.00;;;2.60;;
77026;SDS011;65956;52.986;17.490;2023-07-29T14:05:51;3.30;;;2.10;;
77026;SDS011;65956;52.986;17.490;2023-07-29T14:08:17;3.30;;;2.20;;
77026;SDS011;65956;52.986;17.490;2023-07-29T14:10:43;3.90;;;2.20;;
77026;SDS011;65956;52.986;17.490;2023-07-29T14:13:09;3.40;;;2.10;;
77026;SDS011;65956;52.986;17.490;2023-07-29T14:15:35;3.40;;;2.20;;
77026;SDS011;65956;52.986;17.490;2023-07-29T14:18:01;3.90;;;2.00;;
77026;SDS011;65956;52.986;17.490;2023-07-29T14:20:28;4.40;;;2.10;;
77026;SDS011;65956;52.986;17.490;2023-07-29T14:22:54;3.80;;;2.20;;
77026;SDS011;65956;52.986;17.490;2023-07-29T14:25:20;3.80;;;2.30;;
77026;SDS011;65956;52.986;17.490;2023-07-29T14:27:46;4.50;;;2.30;;
77026;SDS011;65956;52.986;17.490;2023-07-29T14:30:11;3.90;;;2.20;;
77026;SDS011;65956;52.986;17.490;2023-07-29T14:32:37;5.10;;;2.30;;
77026;SDS011;65956;52.986;17.490;2023-07-29T14:35:03;4.30;;;2.50;;
77026;SDS011;65956;52.986;17.490;2023-07-29T14:37:30;3.80;;;2.20;;
77026;SDS011;65956;52.986;17.490;2023-07-29T14:39:57;3.60;;;2.10;;
77026;SDS011;65956;52.986;17.490;2023-07-29T14:42:23;4.30;;;3.00;;